Rio Negrinho, Brazil
Current Conditions -  °F | °C
As of 8:00 AM on Saturday 22 Nov 2014 (Local Time) from SBJV Reporting Station
Moderate Rain Moderate Rain  
Wind Chill: 72°   Ceiling: 400
Heat Index: 72°   Visibility: 1.8mi
Dew Point: 72°   Wind: 5mph
Humidity: 100%   Direction: 220°SW
Pressure: 29.88"   Gusts: NA
Location:  26.25°S, 49.52°W
Report Text: SBJV 221000Z 22004KT 3000 RA BR BKN004 BKN015 22/22 Q1012
Loading
Personal Weather Stations






























Interactive Weather Map New forecast layout! Learn more

10-Day Weather Forecast

Advertisements
Track Severe Weather on mobile